createdAt,value
2019-05-12T00:00:52.623Z,82.30
2019-05-12T00:01:58.776Z,82.50
2019-05-12T00:03:03.234Z,82.20
2019-05-12T00:04:08.197Z,82.30
2019-05-12T00:05:12.579Z,82.10
2019-05-12T00:06:17.660Z,82.20
2019-05-12T00:07:22.108Z,82.20
2019-05-12T00:08:27.719Z,82.60
2019-05-12T00:09:32.047Z,82.40
2019-05-12T00:10:38.625Z,82.50
2019-05-12T00:11:42.515Z,82.50
2019-05-12T00:12:48.194Z,83.20
2019-05-12T00:13:52.896Z,82.70
2019-05-12T00:14:58.991Z,82.70
2019-05-12T00:16:03.332Z,82.60
2019-05-12T00:17:08.268Z,82.80
2019-05-12T00:18:12.479Z,82.80
2019-05-12T00:19:17.937Z,82.90
2019-05-12T00:20:22.243Z,83.00
2019-05-12T00:21:28.315Z,82.90
2019-05-12T00:22:38.175Z,83.10
2019-05-12T00:24:00.036Z,83.30
2019-05-12T00:25:04.338Z,83.30
2019-05-12T00:26:08.846Z,83.20
2019-05-12T00:27:17.861Z,83.20
2019-05-12T00:28:22.547Z,83.40
2019-05-12T00:29:28.692Z,83.30
2019-05-12T00:30:39.031Z,83.50
2019-05-12T00:31:43.399Z,83.70
2019-05-12T00:32:48.018Z,83.60
2019-05-12T00:33:52.229Z,83.70
2019-05-12T00:34:58.519Z,83.80
2019-05-12T00:36:02.785Z,84.00
2019-05-12T00:37:08.302Z,84.00
2019-05-12T00:38:12.599Z,84.10
2019-05-12T00:39:19.150Z,84.30
2019-05-12T00:40:23.262Z,84.20
2019-05-12T00:41:28.370Z,84.00
2019-05-12T00:42:32.767Z,84.10
2019-05-12T00:43:38.248Z,84.40
2019-05-12T00:44:43.008Z,84.20
2019-05-12T00:45:48.263Z,84.30
2019-05-12T00:46:52.686Z,84.30
2019-05-12T00:47:58.214Z,84.30
2019-05-12T00:49:02.907Z,84.20
2019-05-12T00:50:08.235Z,84.30
2019-05-12T00:51:12.647Z,84.20
2019-05-12T00:52:18.664Z,84.30
2019-05-12T00:53:36.133Z,84.50
2019-05-12T00:54:29.320Z,84.60
2019-05-12T00:55:33.647Z,84.50
2019-05-12T00:56:39.153Z,84.50
2019-05-12T00:57:43.594Z,84.50
2019-05-12T00:58:48.759Z,84.90
2019-05-12T00:59:53.091Z,84.70
2019-05-12T01:00:59.534Z,84.80
2019-05-12T01:02:03.644Z,84.70
2019-05-12T01:03:08.890Z,84.90
2019-05-12T01:04:13.245Z,84.70
2019-05-12T01:05:17.895Z,84.80
2019-05-12T01:06:22.110Z,85.00
2019-05-12T01:07:27.748Z,85.00
2019-05-12T01:08:32.090Z,85.10
2019-05-12T01:09:38.574Z,85.40
2019-05-12T01:10:42.572Z,85.10
2019-05-12T01:11:48.161Z,85.30
2019-05-12T01:12:52.492Z,85.20
2019-05-12T01:13:58.308Z,85.30
2019-05-12T01:15:02.758Z,85.30
2019-05-12T01:16:08.093Z,86.00
2019-05-12T01:17:12.531Z,85.50
2019-05-12T01:18:18.100Z,85.40
2019-05-12T01:19:22.551Z,85.40
2019-05-12T01:20:28.277Z,85.60
2019-05-12T01:21:32.878Z,85.50
2019-05-12T01:22:38.220Z,85.70
2019-05-12T01:23:53.900Z,85.70
2019-05-12T01:24:48.943Z,85.90
2019-05-12T01:25:53.191Z,85.70
2019-05-12T01:26:58.172Z,85.60
2019-05-12T01:28:02.486Z,86.40
2019-05-12T01:29:08.456Z,85.70
2019-05-12T01:30:13.002Z,85.70
2019-05-12T01:31:18.744Z,85.80
2019-05-12T01:32:31.335Z,85.70
2019-05-12T01:33:37.966Z,86.00
2019-05-12T01:34:41.789Z,85.90
2019-05-12T01:35:48.338Z,86.00
2019-05-12T01:36:54.169Z,85.90
2019-05-12T01:38:01.489Z,85.90
2019-05-12T01:39:07.756Z,86.00
2019-05-12T01:40:11.555Z,85.90
2019-05-12T01:41:17.978Z,86.00
2019-05-12T01:42:22.140Z,86.10
2019-05-12T01:43:27.770Z,86.20
2019-05-12T01:44:32.159Z,86.30
2019-05-12T01:45:37.954Z,86.30
2019-05-12T01:46:42.597Z,86.50
2019-05-12T01:47:48.600Z,86.50
2019-05-12T01:48:52.922Z,86.50
2019-05-12T01:49:58.123Z,86.50
2019-05-12T01:51:02.519Z,86.60
2019-05-12T01:52:08.706Z,87.00
2019-05-12T01:53:12.961Z,86.90
2019-05-12T01:54:18.898Z,86.90
2019-05-12T01:55:23.280Z,87.20
2019-05-12T01:56:28.772Z,87.20
2019-05-12T01:57:33.238Z,87.10
2019-05-12T01:58:38.148Z,87.00
2019-05-12T01:59:42.554Z,87.10
2019-05-12T02:00:48.230Z,87.10
2019-05-12T02:01:52.724Z,87.00
2019-05-12T02:02:58.597Z,87.40
2019-05-12T02:04:03.053Z,87.20
2019-05-12T02:05:08.896Z,87.50
2019-05-12T02:06:13.200Z,87.40
2019-05-12T02:07:18.550Z,87.50
2019-05-12T02:08:41.787Z,87.50
2019-05-12T02:09:48.081Z,87.50
2019-05-12T02:10:54.556Z,87.40
2019-05-12T02:11:58.794Z,87.50
2019-05-12T02:13:03.403Z,87.60
2019-05-12T02:14:09.288Z,87.60
2019-05-12T02:15:13.848Z,87.50
2019-05-12T02:16:18.855Z,87.60
2019-05-12T02:17:23.723Z,87.60
2019-05-12T02:18:28.174Z,87.70
2019-05-12T02:19:32.815Z,87.50
2019-05-12T02:20:38.062Z,87.60
2019-05-12T02:21:42.937Z,87.80
2019-05-12T02:22:47.761Z,87.80
2019-05-12T02:23:52.492Z,87.70
2019-05-12T02:24:58.444Z,87.70
2019-05-12T02:26:03.108Z,87.60
2019-05-12T02:27:08.288Z,87.60
2019-05-12T02:28:13.047Z,87.70
2019-05-12T02:29:18.296Z,87.60
2019-05-12T02:30:23.046Z,87.60
2019-05-12T02:31:29.407Z,87.50
2019-05-12T02:32:44.880Z,87.50
2019-05-12T02:33:39.472Z,87.50
2019-05-12T02:34:45.771Z,87.60
2019-05-12T02:35:50.074Z,87.80
2019-05-12T02:36:55.495Z,87.90
2019-05-12T02:38:00.003Z,87.90
2019-05-12T02:39:06.816Z,88.20
2019-05-12T02:40:11.059Z,88.60
2019-05-12T02:41:15.815Z,88.10
2019-05-12T02:42:20.076Z,88.00
2019-05-12T02:43:25.055Z,88.10
2019-05-12T02:44:29.267Z,88.10
2019-05-12T02:45:35.773Z,88.10
2019-05-12T02:46:39.768Z,88.40
2019-05-12T02:47:45.649Z,88.50
2019-05-12T02:48:50.225Z,88.50
2019-05-12T02:49:54.808Z,88.90
2019-05-12T02:50:59.044Z,88.90
2019-05-12T02:52:05.091Z,88.80
2019-05-12T02:53:09.487Z,88.90
2019-05-12T02:54:14.436Z,88.90
2019-05-12T02:55:18.729Z,89.50
2019-05-12T02:56:25.637Z,88.70
2019-05-12T02:57:29.187Z,88.80
2019-05-12T02:58:34.643Z,88.80
2019-05-12T02:59:39.134Z,88.60
2019-05-12T03:00:45.511Z,88.50
2019-05-12T03:01:49.613Z,88.50
2019-05-12T03:02:54.827Z,88.60
2019-05-12T03:03:59.300Z,88.60
2019-05-12T03:05:05.565Z,88.70
2019-05-12T03:06:09.801Z,88.70
2019-05-12T03:07:15.507Z,88.70
2019-05-12T03:08:19.929Z,88.50
2019-05-12T03:09:24.653Z,88.50
2019-05-12T03:10:28.836Z,88.70
2019-05-12T03:11:35.499Z,88.70
2019-05-12T03:12:39.299Z,88.70
2019-05-12T03:13:44.849Z,88.40
2019-05-12T03:14:49.246Z,88.30
2019-05-12T03:15:54.860Z,88.40
2019-05-12T03:16:59.536Z,88.30
2019-05-12T03:18:06.250Z,88.20
2019-05-12T03:19:10.033Z,88.40
2019-05-12T03:20:15.626Z,88.40
2019-05-12T03:21:19.890Z,88.50
2019-05-12T03:22:25.399Z,88.50
2019-05-12T03:23:29.780Z,88.60
2019-05-12T03:24:34.426Z,88.50
2019-05-12T03:25:38.647Z,88.50
2019-05-12T03:26:44.997Z,88.50
2019-05-12T03:27:49.104Z,89.10
2019-05-12T03:28:55.605Z,88.80
2019-05-12T03:29:59.604Z,88.70
2019-05-12T03:31:07.919Z,88.80
2019-05-12T03:32:10.093Z,88.70
2019-05-12T03:33:19.241Z,88.60
2019-05-12T03:34:21.058Z,89.30
2019-05-12T03:35:32.601Z,88.70
2019-05-12T03:36:38.971Z,88.70
2019-05-12T03:37:37.876Z,88.70
2019-05-12T03:38:44.705Z,88.70
2019-05-12T03:39:48.382Z,88.60
2019-05-12T03:40:55.118Z,88.80
2019-05-12T03:41:58.840Z,89.00
2019-05-12T03:43:05.384Z,88.70
2019-05-12T03:44:09.293Z,88.80
2019-05-12T03:45:14.938Z,88.80
2019-05-12T03:46:19.749Z,88.90
2019-05-12T03:47:25.054Z,89.00
2019-05-12T03:48:30.005Z,88.90
2019-05-12T03:49:34.869Z,88.70
2019-05-12T03:50:39.428Z,88.90
2019-05-12T03:51:45.658Z,88.90
2019-05-12T03:52:49.876Z,88.90
2019-05-12T03:53:55.681Z,88.80
2019-05-12T03:55:00.620Z,88.80
2019-05-12T03:56:04.857Z,88.80
2019-05-12T03:57:09.420Z,88.90
2019-05-12T03:58:15.328Z,88.70
2019-05-12T03:59:20.018Z,88.90
2019-05-12T04:00:24.916Z,88.90
2019-05-12T04:01:29.671Z,88.80
2019-05-12T04:02:34.213Z,89.00
2019-05-12T04:03:38.884Z,89.00
2019-05-12T04:04:45.312Z,88.60
2019-05-12T04:05:49.359Z,88.90
2019-05-12T04:06:54.364Z,88.90
2019-05-12T04:07:59.176Z,88.90
2019-05-12T04:09:05.067Z,88.90
2019-05-12T04:10:09.663Z,88.70
2019-05-12T04:11:14.731Z,88.60
2019-05-12T04:12:19.423Z,88.90
2019-05-12T04:13:26.590Z,88.80
2019-05-12T04:14:29.937Z,88.90
2019-05-12T04:15:34.981Z,88.90
2019-05-12T04:16:40.007Z,88.80
2019-05-12T04:17:45.713Z,89.00
2019-05-12T04:18:50.264Z,89.10
2019-05-12T04:19:55.064Z,89.10
2019-05-12T04:20:59.807Z,88.90
2019-05-12T04:22:05.491Z,89.10
2019-05-12T04:23:10.330Z,89.30
2019-05-12T04:24:14.724Z,88.60
2019-05-12T04:25:19.290Z,88.50
2019-05-12T04:26:25.376Z,89.00
2019-05-12T04:27:29.799Z,88.70
2019-05-12T04:28:35.155Z,88.40
2019-05-12T04:29:39.918Z,88.70
2019-05-12T04:30:44.685Z,88.90
2019-05-12T04:31:49.417Z,88.70
2019-05-12T04:32:55.275Z,88.70
2019-05-12T04:34:00.079Z,88.50
2019-05-12T04:35:05.007Z,88.80
2019-05-12T04:36:09.717Z,88.90
2019-05-12T04:37:14.883Z,89.10
2019-05-12T04:38:19.608Z,88.90
2019-05-12T04:39:25.318Z,89.00
2019-05-12T04:40:30.121Z,88.90
2019-05-12T04:41:35.395Z,89.10
2019-05-12T04:42:40.290Z,89.10
2019-05-12T04:43:44.921Z,89.10
2019-05-12T04:44:49.544Z,89.10
2019-05-12T04:45:54.900Z,89.10
2019-05-12T04:46:59.603Z,89.10
2019-05-12T04:48:05.201Z,89.10
2019-05-12T04:49:10.247Z,89.20
2019-05-12T04:50:15.625Z,89.10
2019-05-12T04:51:20.467Z,89.00
2019-05-12T04:52:25.024Z,89.30
2019-05-12T04:53:29.660Z,89.50
2019-05-12T04:54:35.604Z,89.10
2019-05-12T04:55:40.441Z,88.80
2019-05-12T04:56:45.058Z,88.50
2019-05-12T04:57:49.748Z,88.70
2019-05-12T04:58:54.691Z,88.70
2019-05-12T04:59:59.427Z,88.10
2019-05-12T05:01:06.421Z,88.10
2019-05-12T05:02:10.108Z,87.70
2019-05-12T05:03:14.573Z,87.30
2019-05-12T05:04:19.155Z,87.30
2019-05-12T05:05:24.874Z,87.10
2019-05-12T05:06:29.614Z,87.10
2019-05-12T05:07:35.841Z,86.80
2019-05-12T05:08:40.168Z,86.50
2019-05-12T05:09:44.581Z,86.40
2019-05-12T05:10:49.156Z,86.10
2019-05-12T05:11:54.283Z,86.10
2019-05-12T05:12:59.068Z,85.90
2019-05-12T05:14:04.186Z,86.10
2019-05-12T05:15:09.180Z,85.80
2019-05-12T05:16:14.413Z,85.80
2019-05-12T05:17:19.320Z,85.70
2019-05-12T05:18:23.944Z,85.60
2019-05-12T05:19:28.596Z,85.30
2019-05-12T05:20:34.438Z,85.40
2019-05-12T05:21:39.223Z,84.80
2019-05-12T05:22:44.155Z,84.90
2019-05-12T05:23:48.764Z,84.70
2019-05-12T05:24:53.662Z,84.20
2019-05-12T05:25:58.264Z,84.00
2019-05-12T05:27:04.432Z,83.60
2019-05-12T05:28:08.920Z,83.10
2019-05-12T05:29:13.675Z,83.30
2019-05-12T05:30:18.330Z,83.00
2019-05-12T05:31:24.331Z,83.30
2019-05-12T05:32:29.154Z,83.20
2019-05-12T05:33:34.060Z,82.60
2019-05-12T05:34:38.746Z,83.10
2019-05-12T05:35:43.674Z,81.50
2019-05-12T05:36:51.047Z,81.70
2019-05-12T05:37:54.520Z,81.30
2019-05-12T05:39:01.752Z,80.30
2019-05-12T05:40:05.688Z,75.30
2019-05-12T05:41:10.662Z,73.40
2019-05-12T05:42:15.119Z,73.00
2019-05-12T05:43:19.703Z,73.40
2019-05-12T05:44:24.186Z,72.60
2019-05-12T05:45:28.817Z,70.60
2019-05-12T05:46:33.725Z,70.50
2019-05-12T05:47:38.514Z,71.30
2019-05-12T05:48:44.000Z,71.80
2019-05-12T05:49:48.724Z,72.20
2019-05-12T05:50:54.165Z,70.80
2019-05-12T05:51:58.931Z,70.90
2019-05-12T05:53:03.938Z,69.50
2019-05-12T05:54:08.683Z,70.30
2019-05-12T05:55:15.632Z,69.10
2019-05-12T05:56:19.381Z,69.70
2019-05-12T05:57:25.800Z,69.30
2019-05-12T05:58:29.991Z,69.90
2019-05-12T05:59:36.838Z,69.80
2019-05-12T06:00:40.647Z,69.30
2019-05-12T06:01:46.980Z,67.60
2019-05-12T06:02:51.433Z,66.30
2019-05-12T06:03:58.387Z,65.40
2019-05-12T06:05:04.216Z,64.00
2019-05-12T06:06:12.313Z,64.80
2019-05-12T06:07:14.478Z,64.30
2019-05-12T06:08:20.759Z,64.00
2019-05-12T06:09:25.459Z,63.90
2019-05-12T06:10:36.051Z,64.20
2019-05-12T06:11:36.139Z,63.90
2019-05-12T06:12:45.555Z,63.90
2019-05-12T06:13:46.805Z,65.20
2019-05-12T06:14:57.899Z,65.30
2019-05-12T06:15:57.582Z,66.60
2019-05-12T06:17:04.173Z,66.60
2019-05-12T06:18:08.388Z,65.50
2019-05-12T06:19:14.112Z,64.70
2019-05-12T06:20:18.863Z,64.30
2019-05-12T06:21:24.198Z,64.80
2019-05-12T06:22:28.876Z,64.40
2019-05-12T06:23:34.896Z,64.50
2019-05-12T06:24:39.562Z,64.10
2019-05-12T06:25:47.457Z,64.40
2019-05-12T06:26:57.697Z,64.90
2019-05-12T06:28:00.078Z,64.70
2019-05-12T06:29:04.489Z,63.40
2019-05-12T06:30:09.134Z,62.50
2019-05-12T06:31:13.978Z,63.10
2019-05-12T06:32:18.435Z,63.60
2019-05-12T06:33:31.302Z,64.10
2019-05-12T06:34:29.126Z,64.30
2019-05-12T06:35:37.550Z,65.30
2019-05-12T06:36:49.323Z,65.40
2019-05-12T06:38:00.098Z,65.70
2019-05-12T06:39:00.047Z,66.20
2019-05-12T06:40:04.659Z,65.30
2019-05-12T06:41:12.674Z,64.90
2019-05-12T06:42:16.951Z,63.90
2019-05-12T06:43:21.412Z,65.10
2019-05-12T06:44:26.011Z,64.10
2019-05-12T06:45:33.975Z,64.50
2019-05-12T06:46:36.715Z,64.60
2019-05-12T06:47:45.428Z,65.30
2019-05-12T06:48:47.410Z,65.40
2019-05-12T06:49:56.440Z,66.10
2019-05-12T06:50:58.087Z,66.60
2019-05-12T06:52:07.075Z,66.60
2019-05-12T06:53:09.911Z,66.40
2019-05-12T06:54:15.089Z,66.20
2019-05-12T06:55:19.942Z,65.80
2019-05-12T06:56:24.354Z,66.40
2019-05-12T06:57:29.093Z,66.50
2019-05-12T06:58:34.373Z,66.00
2019-05-12T06:59:41.986Z,65.60
2019-05-12T07:00:45.410Z,65.30
2019-05-12T07:01:54.975Z,64.80
2019-05-12T07:02:56.012Z,64.50
2019-05-12T07:04:05.692Z,65.20
2019-05-12T07:05:06.656Z,65.60
2019-05-12T07:06:18.023Z,65.40
2019-05-12T07:07:17.317Z,65.10
2019-05-12T07:08:27.491Z,65.60
2019-05-12T07:09:29.458Z,65.70
2019-05-12T07:10:39.344Z,65.40
2019-05-12T07:11:45.114Z,65.40
2019-05-12T07:12:59.035Z,65.10
2019-05-12T07:14:02.109Z,64.00
2019-05-12T07:14:58.886Z,63.50
2019-05-12T07:16:22.964Z,63.00
2019-05-12T07:17:44.193Z,61.20
2019-05-12T07:18:48.352Z,61.40
2019-05-12T07:19:56.957Z,62.10
2019-05-12T07:20:59.030Z,61.20
2019-05-12T07:22:18.821Z,60.50
2019-05-12T07:23:09.702Z,59.70
2019-05-12T07:24:14.518Z,60.70
2019-05-12T07:25:24.604Z,60.80
2019-05-12T07:26:25.467Z,60.80
2019-05-12T07:27:36.772Z,60.90
2019-05-12T07:28:40.192Z,60.50
2019-05-12T07:29:43.608Z,60.50
2019-05-12T07:30:48.500Z,61.10
2019-05-12T07:31:53.736Z,62.00
2019-05-12T07:33:01.134Z,62.50
2019-05-12T07:34:07.673Z,61.60
2019-05-12T07:35:12.107Z,61.80
2019-05-12T07:36:16.313Z,62.10
2019-05-12T07:37:23.166Z,61.10
2019-05-12T07:38:27.159Z,60.30
2019-05-12T07:39:37.007Z,60.30
2019-05-12T07:40:38.148Z,59.80
2019-05-12T07:41:50.801Z,59.50
2019-05-12T07:42:49.200Z,59.60
2019-05-12T07:43:59.038Z,59.20
2019-05-12T07:45:00.116Z,58.70
2019-05-12T07:46:07.176Z,58.10
2019-05-12T07:47:10.787Z,58.00
2019-05-12T07:48:15.558Z,57.80
2019-05-12T07:49:22.678Z,57.70
2019-05-12T07:50:27.365Z,58.60
2019-05-12T07:51:38.847Z,58.50
2019-05-12T07:52:38.150Z,58.50
2019-05-12T07:53:46.937Z,58.30
2019-05-12T07:54:48.787Z,57.90
2019-05-12T07:55:53.349Z,57.80
2019-05-12T07:57:05.387Z,57.90
2019-05-12T07:58:13.457Z,58.30
2019-05-12T07:59:10.697Z,58.10
2019-05-12T08:00:21.119Z,58.10
2019-05-12T08:01:23.485Z,58.30
2019-05-12T08:02:31.714Z,58.40
2019-05-12T08:03:34.540Z,58.10
2019-05-12T08:04:39.713Z,57.60
2019-05-12T08:05:45.234Z,56.90
2019-05-12T08:06:49.450Z,56.90
2019-05-12T08:07:54.223Z,57.20
2019-05-12T08:08:59.175Z,57.90
2019-05-12T08:10:07.354Z,58.70
2019-05-12T08:11:09.920Z,58.60
2019-05-12T08:12:16.453Z,59.00
2019-05-12T08:13:20.562Z,57.90
2019-05-12T08:14:29.331Z,56.60
2019-05-12T08:15:33.726Z,55.90
2019-05-12T08:16:37.639Z,54.60
2019-05-12T08:17:43.878Z,53.70
2019-05-12T08:18:48.295Z,53.00
2019-05-12T08:19:53.607Z,52.80
2019-05-12T08:21:00.125Z,53.00
2019-05-12T08:22:04.532Z,51.60
2019-05-12T08:23:10.710Z,51.40
2019-05-12T08:24:15.050Z,50.00
2019-05-12T08:25:24.782Z,49.50
2019-05-12T08:26:25.710Z,48.60
2019-05-12T08:27:30.513Z,47.90
2019-05-12T08:28:40.053Z,46.00
2019-05-12T08:29:43.298Z,47.30
2019-05-12T08:30:52.053Z,45.90
2019-05-12T08:31:54.888Z,45.30
2019-05-12T08:33:07.283Z,44.30
2019-05-12T08:34:05.586Z,43.60
2019-05-12T08:35:09.807Z,43.50
2019-05-12T08:36:16.392Z,42.20
2019-05-12T08:37:20.563Z,40.60
2019-05-12T08:38:25.373Z,40.90
2019-05-12T08:39:29.726Z,40.20
2019-05-12T08:40:39.823Z,38.80
2019-05-12T08:41:40.421Z,38.40
2019-05-12T08:42:45.196Z,37.70
2019-05-12T08:43:54.890Z,39.00
2019-05-12T08:44:55.888Z,39.30
2019-05-12T08:46:05.354Z,40.20
2019-05-12T08:47:06.547Z,41.10
2019-05-12T08:48:17.173Z,41.10
2019-05-12T08:49:17.215Z,42.00
2019-05-12T08:50:23.270Z,42.60
2019-05-12T08:51:27.884Z,43.00
2019-05-12T08:52:37.317Z,43.60
2019-05-12T08:53:38.507Z,44.20
2019-05-12T08:54:45.363Z,44.30
2019-05-12T08:55:49.150Z,44.60
2019-05-12T08:56:59.359Z,45.10
2019-05-12T08:57:59.830Z,45.40
2019-05-12T08:59:04.452Z,45.80
2019-05-12T09:00:09.333Z,46.50
2019-05-12T09:01:13.876Z,47.20
2019-05-12T09:02:18.795Z,47.10
2019-05-12T09:03:27.100Z,47.60
2019-05-12T09:04:29.431Z,47.50
2019-05-12T09:05:38.075Z,48.10
2019-05-12T09:06:40.064Z,47.20
2019-05-12T09:07:44.308Z,46.60
2019-05-12T09:08:49.631Z,47.10
2019-05-12T09:09:53.982Z,47.00
2019-05-12T09:10:58.743Z,43.90
2019-05-12T09:12:03.583Z,41.60
2019-05-12T09:13:08.507Z,39.40
2019-05-12T09:14:14.631Z,38.10
2019-05-12T09:15:19.164Z,36.90
2019-05-12T09:16:24.445Z,34.90
2019-05-12T09:17:29.486Z,33.90
2019-05-12T09:18:37.532Z,34.60
2019-05-12T09:19:40.134Z,32.10
2019-05-12T09:20:48.908Z,32.20
2019-05-12T09:21:50.779Z,30.80
2019-05-12T09:23:00.566Z,29.30
2019-05-12T09:24:01.439Z,28.00
2019-05-12T09:25:08.282Z,26.10
2019-05-12T09:26:13.549Z,26.10
2019-05-12T09:27:17.915Z,26.40
2019-05-12T09:28:24.005Z,25.30
2019-05-12T09:29:28.317Z,25.70
2019-05-12T09:30:33.840Z,25.10
2019-05-12T09:31:38.159Z,25.30
2019-05-12T09:32:48.253Z,24.90
2019-05-12T09:33:48.824Z,25.30
2019-05-12T09:34:58.056Z,24.50
2019-05-12T09:35:59.510Z,24.50
2019-05-12T09:37:04.363Z,24.90
2019-05-12T09:38:11.311Z,25.50
2019-05-12T09:39:15.039Z,26.80
2019-05-12T09:40:20.730Z,26.70
2019-05-12T09:41:25.672Z,26.60
2019-05-12T09:42:30.171Z,25.60
2019-05-12T09:43:34.982Z,25.00
2019-05-12T09:44:41.322Z,24.50
2019-05-12T09:45:51.557Z,24.50
2019-05-12T09:46:53.409Z,23.90
2019-05-12T09:47:58.817Z,23.90
2019-05-12T09:49:04.203Z,23.50
2019-05-12T09:50:09.765Z,23.30
2019-05-12T09:51:17.190Z,23.30
2019-05-12T09:52:23.202Z,23.30
2019-05-12T09:53:27.343Z,22.80
2019-05-12T09:54:35.436Z,22.90
2019-05-12T09:55:37.975Z,22.10
2019-05-12T09:56:44.168Z,22.40
2019-05-12T09:57:48.608Z,22.80
2019-05-12T09:59:01.549Z,23.10
2019-05-12T09:59:59.655Z,22.70
2019-05-12T10:01:04.646Z,22.50
2019-05-12T10:02:10.544Z,22.40
2019-05-12T10:03:15.300Z,22.30
2019-05-12T10:04:19.792Z,21.70
2019-05-12T10:05:24.575Z,21.40
2019-05-12T10:06:28.812Z,21.60
2019-05-12T10:07:34.029Z,21.70
2019-05-12T10:08:38.338Z,21.40
2019-05-12T10:09:44.015Z,20.30
2019-05-12T10:10:48.242Z,21.20
2019-05-12T10:12:00.280Z,21.70
2019-05-12T10:12:58.984Z,22.60
2019-05-12T10:14:06.517Z,22.50
2019-05-12T10:15:10.103Z,23.90
2019-05-12T10:16:14.890Z,23.60
2019-05-12T10:17:20.217Z,23.90
2019-05-12T10:18:25.589Z,23.60
2019-05-12T10:19:29.802Z,24.30
2019-05-12T10:20:39.501Z,23.80
2019-05-12T10:21:40.468Z,23.60
2019-05-12T10:22:45.255Z,23.80
2019-05-12T10:23:51.413Z,23.70
2019-05-12T10:24:58.610Z,24.10
2019-05-12T10:26:09.484Z,23.20
2019-05-12T10:27:08.386Z,22.20
2019-05-12T10:28:15.357Z,21.90
2019-05-12T10:29:20.790Z,21.80
2019-05-12T10:30:24.954Z,22.70
2019-05-12T10:31:34.550Z,21.60
2019-05-12T10:32:35.758Z,21.80
2019-05-12T10:33:40.578Z,21.00
2019-05-12T10:34:44.821Z,20.90
2019-05-12T10:35:49.587Z,21.30
2019-05-12T10:36:54.163Z,21.10
2019-05-12T10:38:00.093Z,21.30
2019-05-12T10:39:05.400Z,21.90
2019-05-12T10:40:10.211Z,21.70
2019-05-12T10:41:14.432Z,22.00
2019-05-12T10:42:19.192Z,22.00
2019-05-12T10:43:23.721Z,21.30
2019-05-12T10:44:29.895Z,21.40
2019-05-12T10:45:35.447Z,21.70
2019-05-12T10:46:42.381Z,21.90
2019-05-12T10:47:46.112Z,22.40
2019-05-12T10:48:50.883Z,22.60
2019-05-12T10:49:55.136Z,22.00
2019-05-12T10:50:59.939Z,22.40
2019-05-12T10:52:04.193Z,22.60
2019-05-12T10:53:09.913Z,23.50
2019-05-12T10:54:15.657Z,23.80
2019-05-12T10:55:20.775Z,23.90
2019-05-12T10:56:24.998Z,24.90
2019-05-12T10:57:29.771Z,26.10
2019-05-12T10:58:33.992Z,26.50
2019-05-12T10:59:46.160Z,26.70
2019-05-12T11:00:58.810Z,26.80
2019-05-12T11:02:03.360Z,27.10
2019-05-12T11:03:10.738Z,26.80
2019-05-12T11:04:14.338Z,25.90
2019-05-12T11:05:25.479Z,25.90
2019-05-12T11:06:25.082Z,25.90
2019-05-12T11:07:30.028Z,24.70
2019-05-12T11:08:34.811Z,24.40
2019-05-12T11:09:39.086Z,24.40
2019-05-12T11:10:43.866Z,24.00
2019-05-12T11:11:48.084Z,23.70
2019-05-12T11:12:52.859Z,23.30
2019-05-12T11:13:57.083Z,23.10
2019-05-12T11:15:06.650Z,22.60
2019-05-12T11:16:07.769Z,22.20
2019-05-12T11:17:13.783Z,22.20
2019-05-12T11:18:24.601Z,22.00
2019-05-12T11:19:26.548Z,21.60
2019-05-12T11:20:30.794Z,22.00
2019-05-12T11:21:35.569Z,22.00
2019-05-12T11:22:39.814Z,22.30
2019-05-12T11:23:44.601Z,22.50
2019-05-12T11:24:52.341Z,22.30
2019-05-12T11:25:55.321Z,22.30
2019-05-12T11:26:59.555Z,22.80
2019-05-12T11:28:04.455Z,22.20
2019-05-12T11:29:08.680Z,21.80
2019-05-12T11:30:13.801Z,21.50
2019-05-12T11:31:18.014Z,21.30
2019-05-12T11:32:23.246Z,21.10
2019-05-12T11:33:27.565Z,21.70
2019-05-12T11:34:33.542Z,21.20
2019-05-12T11:35:38.003Z,21.30
2019-05-12T11:36:43.753Z,21.60
2019-05-12T11:37:48.103Z,21.40
2019-05-12T11:38:53.441Z,20.70
2019-05-12T11:39:57.783Z,20.60
2019-05-12T11:41:04.228Z,21.40
2019-05-12T11:42:08.623Z,21.60
2019-05-12T11:43:14.319Z,22.40
2019-05-12T11:44:18.823Z,23.10
2019-05-12T11:45:24.220Z,23.20
2019-05-12T11:46:28.571Z,23.70
2019-05-12T11:47:37.129Z,24.20
2019-05-12T11:48:40.271Z,23.70
2019-05-12T11:49:45.660Z,23.90
2019-05-12T11:50:51.379Z,24.20
2019-05-12T11:52:01.134Z,24.30
2019-05-12T11:53:04.305Z,24.80
2019-05-12T11:54:10.793Z,25.00
2019-05-12T11:55:14.852Z,25.10
2019-05-12T11:56:19.663Z,25.20
2019-05-12T11:57:26.173Z,25.10
2019-05-12T11:58:30.369Z,25.50
2019-05-12T11:59:34.590Z,25.70
2019-05-12T12:00:41.346Z,25.20
2019-05-12T12:01:49.801Z,25.80
2019-05-12T12:02:53.262Z,26.70
2019-05-12T12:03:57.478Z,26.30
2019-05-12T12:05:02.270Z,26.80
2019-05-12T12:06:06.518Z,27.10
2019-05-12T12:07:11.320Z,27.10
2019-05-12T12:08:15.557Z,27.80
2019-05-12T12:09:20.306Z,28.60
2019-05-12T12:10:29.371Z,28.60
2019-05-12T12:11:31.010Z,28.30
2019-05-12T12:12:39.523Z,29.00
2019-05-12T12:13:41.691Z,28.70
2019-05-12T12:14:50.194Z,28.80
2019-05-12T12:15:52.339Z,29.20
2019-05-12T12:16:56.604Z,29.30
2019-05-12T12:18:03.870Z,29.10
2019-05-12T12:19:07.245Z,29.10
2019-05-12T12:20:13.912Z,29.20
2019-05-12T12:21:17.959Z,29.50
2019-05-12T12:22:26.456Z,29.80
2019-05-12T12:23:28.624Z,30.00
2019-05-12T12:24:33.696Z,29.80
2019-05-12T12:25:37.898Z,30.10
2019-05-12T12:26:44.546Z,30.40
2019-05-12T12:27:48.579Z,30.80
2019-05-12T12:28:53.830Z,31.00
2019-05-12T12:29:57.975Z,31.60
2019-05-12T12:31:05.369Z,31.40
2019-05-12T12:32:10.003Z,32.10
2019-05-12T12:33:15.108Z,32.20
2019-05-12T12:34:23.523Z,31.80
2019-05-12T12:35:26.036Z,32.20
2019-05-12T12:36:30.295Z,32.80
2019-05-12T12:37:35.108Z,33.10
2019-05-12T12:38:39.340Z,33.20
2019-05-12T12:39:44.125Z,33.60
2019-05-12T12:40:48.367Z,34.20
2019-05-12T12:41:59.526Z,34.20
2019-05-12T12:42:59.100Z,34.90
2019-05-12T12:44:04.598Z,35.10
2019-05-12T12:45:46.319Z,34.80
2019-05-12T12:46:51.264Z,35.00
2019-05-12T12:47:57.002Z,34.70
2019-05-12T12:49:06.549Z,34.40
2019-05-12T12:50:07.682Z,34.70
2019-05-12T12:51:15.337Z,33.90
2019-05-12T12:52:18.442Z,34.00
2019-05-12T12:53:23.810Z,33.50
2019-05-12T12:54:29.026Z,35.00
2019-05-12T12:55:33.236Z,34.30
2019-05-12T12:56:38.040Z,34.30
2019-05-12T12:57:46.387Z,34.70
2019-05-12T12:58:48.689Z,34.30
2019-05-12T12:59:52.966Z,33.50
2019-05-12T13:00:58.007Z,33.00
2019-05-12T13:02:05.902Z,33.80
2019-05-12T13:03:08.704Z,33.20
2019-05-12T13:04:13.218Z,33.10
2019-05-12T13:05:18.202Z,32.70
2019-05-12T13:06:23.862Z,33.70
2019-05-12T13:07:28.735Z,34.20
2019-05-12T13:08:34.231Z,34.00
2019-05-12T13:09:39.221Z,34.00
2019-05-12T13:10:47.138Z,35.00
2019-05-12T13:11:49.881Z,34.00
2019-05-12T13:12:59.125Z,34.50
2019-05-12T13:14:00.559Z,34.50
2019-05-12T13:15:04.968Z,34.30
2019-05-12T13:16:09.734Z,35.00
2019-05-12T13:17:14.271Z,34.50
2019-05-12T13:18:27.428Z,33.40
2019-05-12T13:19:25.044Z,33.70
2019-05-12T13:20:29.820Z,33.50
2019-05-12T13:21:34.039Z,33.90
2019-05-12T13:22:38.798Z,33.60
2019-05-12T13:23:45.276Z,34.20
2019-05-12T13:24:49.422Z,34.90
2019-05-12T13:25:54.677Z,36.10
2019-05-12T13:26:59.658Z,36.50
2019-05-12T13:28:10.354Z,37.40
2019-05-12T13:29:10.330Z,37.50
2019-05-12T13:30:19.845Z,37.30
2019-05-12T13:31:20.904Z,38.10
2019-05-12T13:32:32.048Z,38.60
2019-05-12T13:33:33.707Z,38.40
2019-05-12T13:34:38.627Z,38.50
2019-05-12T13:35:43.626Z,39.10
2019-05-12T13:36:47.929Z,39.60
2019-05-12T13:37:56.370Z,40.40
2019-05-12T13:38:58.624Z,40.30
2019-05-12T13:40:03.418Z,40.40
2019-05-12T13:41:09.517Z,40.10
2019-05-12T13:42:14.058Z,40.50
2019-05-12T13:43:19.667Z,40.60
2019-05-12T13:44:24.590Z,40.30
2019-05-12T13:45:28.804Z,41.20
2019-05-12T13:46:34.482Z,40.20
2019-05-12T13:47:40.052Z,39.80
2019-05-12T13:48:44.973Z,39.50
2019-05-12T13:49:49.194Z,39.40
2019-05-12T13:51:06.933Z,39.40
2019-05-12T13:51:59.786Z,38.50
2019-05-12T13:53:08.666Z,38.00
2019-05-12T13:54:10.512Z,37.60
2019-05-12T13:55:15.287Z,36.90
2019-05-12T13:56:24.650Z,37.70
2019-05-12T13:57:25.936Z,37.50
2019-05-12T13:58:34.521Z,37.50
2019-05-12T13:59:36.606Z,37.60
2019-05-12T14:00:41.377Z,39.20
2019-05-12T14:01:47.271Z,38.70